createdAt,value
2022-11-17T00:00:46.185Z,5.4
2022-11-17T00:07:06.000Z,5.4
2022-11-17T00:13:29.034Z,1.7
2022-11-17T00:19:49.016Z,1.7
2022-11-17T00:26:11.968Z,0.6
2022-11-17T00:32:31.932Z,0.6
2022-11-17T00:38:54.958Z,1.4
2022-11-17T00:45:14.933Z,1.4
2022-11-17T00:51:37.978Z,3.2
2022-11-17T00:57:58.037Z,3.2
2022-11-17T01:04:20.986Z,0.8
2022-11-17T01:10:40.933Z,0.8
2022-11-17T01:17:03.999Z,5.2
2022-11-17T01:23:23.956Z,5.2
2022-11-17T01:29:46.923Z,0.9
2022-11-17T01:36:07.084Z,0.9
2022-11-17T01:42:29.951Z,0.5
2022-11-17T01:48:49.964Z,0.5
2022-11-17T01:55:13.075Z,1.4
2022-11-17T02:01:32.973Z,1.4
2022-11-17T02:07:55.938Z,5.9
2022-11-17T02:14:15.960Z,5.9
2022-11-17T02:20:38.897Z,26.3
2022-11-17T02:26:58.952Z,26.3
2022-11-17T02:33:22.027Z,34.6
2022-11-17T02:39:41.939Z,34.6
2022-11-17T02:46:04.928Z,4.5
2022-11-17T02:52:25.019Z,4.5
2022-11-17T02:58:47.942Z,1.2
2022-11-17T03:05:07.896Z,1.2
2022-11-17T03:11:31.068Z,0.1
2022-11-17T03:17:50.922Z,0.1
2022-11-17T03:24:13.934Z,0.8
2022-11-17T03:30:37.406Z,0.8
2022-11-17T03:36:56.947Z,0.6
2022-11-17T03:43:16.901Z,0.6
2022-11-17T03:49:40.086Z,0.1
2022-11-17T03:55:59.996Z,0.1
2022-11-17T04:02:22.935Z,1.2
2022-11-17T04:08:43.064Z,1.2
2022-11-17T04:15:05.962Z,1.4
2022-11-17T04:21:25.911Z,1.4
2022-11-17T04:44:48.927Z,0.4
2022-11-17T04:51:11.909Z,3.6
2022-11-17T04:57:31.987Z,3.6
2022-11-17T05:03:54.936Z,3.6
2022-11-17T05:10:14.942Z,3.6
2022-11-17T05:16:37.892Z,0.3
2022-11-17T05:23:00.263Z,0.3
2022-11-17T05:29:20.924Z,3.3
2022-11-17T05:35:40.939Z,3.3
2022-11-17T05:42:03.994Z,0.9
2022-11-17T05:48:23.909Z,0.9
2022-11-17T05:54:46.964Z,1.5
2022-11-17T06:01:07.120Z,1.5
2022-11-17T06:07:29.948Z,0.9
2022-11-17T06:13:49.994Z,0.9
2022-11-17T06:20:12.924Z,0.7
2022-11-17T06:26:32.905Z,0.7
2022-11-17T06:32:55.939Z,2.3
2022-11-17T06:39:15.953Z,2.3
2022-11-17T06:45:38.973Z,1.2
2022-11-17T06:51:58.885Z,1.2
2022-11-17T06:58:22.019Z,1.8
2022-11-17T07:04:41.927Z,1.8
2022-11-17T07:11:04.910Z,13.9
2022-11-17T07:17:25.054Z,13.9
2022-11-17T07:23:47.987Z,0.6
2022-11-17T07:30:07.904Z,0.6
2022-11-17T07:36:31.046Z,0.8
2022-11-17T07:42:51.455Z,0.8
2022-11-17T07:49:14.008Z,2.7
2022-11-17T07:55:34.075Z,2.7
2022-11-17T08:01:56.955Z,1.2
2022-11-17T08:08:16.980Z,1.2
2022-11-17T08:14:39.941Z,2.6
2022-11-17T08:21:00.042Z,2.6
2022-11-17T08:27:22.987Z,2.7
2022-11-17T08:33:43.053Z,2.7
2022-11-17T08:40:05.974Z,10.1
2022-11-17T08:46:25.929Z,10.1
2022-11-17T08:52:49.081Z,0.2
2022-11-17T08:59:08.904Z,0.2
2022-11-17T09:05:31.976Z,0.6
2022-11-17T09:11:52.052Z,0.6
2022-11-17T09:18:14.913Z,13
2022-11-17T09:24:34.959Z,13
2022-11-17T09:30:59.182Z,0.3
2022-11-17T09:37:17.951Z,0.3
2022-11-17T09:59:13.041Z,6
2022-11-17T10:05:32.907Z,6
2022-11-17T10:11:55.963Z,6
2022-11-17T10:18:16.034Z,6
2022-11-17T10:24:39.007Z,0.1
2022-11-17T10:30:58.987Z,0.1
2022-11-17T10:37:21.959Z,4.4
2022-11-17T10:43:42.089Z,4.4
2022-11-17T10:50:04.936Z,0.6
2022-11-17T10:56:24.985Z,0.6
2022-11-17T11:02:47.990Z,1.5
2022-11-17T11:09:07.896Z,1.5
2022-11-17T11:15:30.990Z,0.2
2022-11-17T11:21:50.946Z,0.2
2022-11-17T11:28:13.927Z,2.2
2022-11-17T11:34:33.982Z,2.2
2022-11-17T11:40:56.926Z,0.2
2022-11-17T11:47:16.910Z,0.2
2022-11-17T11:53:39.962Z,0.2
2022-11-17T12:00:03.951Z,0.2
2022-11-17T12:06:23.105Z,0
2022-11-17T12:12:42.918Z,0
2022-11-17T12:19:05.954Z,0.2
2022-11-17T12:25:25.938Z,0.2
2022-11-17T12:31:48.930Z,0.1
2022-11-17T12:38:08.962Z,0.1
2022-11-17T12:44:31.884Z,0.1
2022-11-17T12:50:51.928Z,0.1
2022-11-17T12:57:14.922Z,0.1
2022-11-17T13:03:34.970Z,0.1
2022-11-17T13:09:57.979Z,4.8
2022-11-17T13:16:17.933Z,4.8
2022-11-17T13:22:42.145Z,8.9
2022-11-17T13:29:01.067Z,8.9
2022-11-17T13:35:24.054Z,0.3
2022-11-17T13:41:44.027Z,0.3
2022-11-17T13:48:06.967Z,0.3
2022-11-17T13:54:26.969Z,0.3
2022-11-17T14:00:49.952Z,5.6
2022-11-17T14:07:09.963Z,5.6
2022-11-17T14:13:32.945Z,0.4
2022-11-17T14:19:52.940Z,0.4
2022-11-17T14:26:15.998Z,0.1
2022-11-17T14:32:35.958Z,0.1
2022-11-17T14:38:59.457Z,0.8
2022-11-17T14:45:18.939Z,0.8
2022-11-17T14:51:42.043Z,0.2
2022-11-17T15:14:30.434Z,3.2
2022-11-17T15:20:49.905Z,3.2
2022-11-17T15:27:12.902Z,3.2
2022-11-17T15:33:32.933Z,3.2
2022-11-17T15:39:56.043Z,1
2022-11-17T15:46:15.971Z,1
2022-11-17T15:52:57.024Z,0.8
2022-11-17T15:58:58.933Z,0.8
2022-11-17T16:05:22.132Z,0.6
2022-11-17T16:11:42.135Z,0.6
2022-11-17T16:18:04.891Z,4.9
2022-11-17T16:24:24.987Z,4.9
2022-11-17T16:30:47.938Z,1.2
2022-11-17T16:37:07.973Z,1.2
2022-11-17T16:43:31.022Z,1.9
2022-11-17T16:49:51.780Z,1.9
2022-11-17T16:56:14.030Z,2.3
2022-11-17T17:02:34.019Z,2.3
2022-11-17T17:08:57.031Z,0.2
2022-11-17T17:15:17.010Z,0.2
2022-11-17T17:21:39.939Z,0.9
2022-11-17T17:27:59.992Z,0.9
2022-11-17T17:34:23.063Z,0.6
2022-11-17T17:40:42.961Z,0.6
2022-11-17T17:47:06.041Z,4.8
2022-11-17T17:53:25.927Z,4.8
2022-11-17T17:59:48.907Z,1.8
2022-11-17T18:06:08.994Z,1.8
2022-11-17T18:12:31.973Z,2.5
2022-11-17T18:18:51.998Z,2.5
2022-11-17T18:25:17.766Z,0.5
2022-11-17T18:31:34.962Z,0.5
2022-11-17T18:37:58.026Z,1.5
2022-11-17T18:44:17.999Z,1.5
2022-11-17T18:50:58.224Z,0.2
2022-11-17T18:57:00.973Z,0.2
2022-11-17T19:03:24.019Z,0.8
2022-11-17T19:09:43.972Z,0.8
2022-11-17T19:16:06.968Z,11.5
2022-11-17T19:22:27.039Z,11.5
2022-11-17T19:28:49.969Z,0.7
2022-11-17T19:35:15.860Z,0.7
2022-11-17T19:41:33.136Z,2.1
2022-11-17T19:47:52.999Z,2.1
2022-11-17T19:54:16.065Z,4.7
2022-11-17T20:00:36.000Z,4.7
2022-11-17T20:16:12.172Z,15.8
2022-11-17T20:22:29.896Z,15.8
2022-11-17T20:28:52.889Z,1.7
2022-11-17T20:35:12.972Z,1.7
2022-11-17T20:41:35.900Z,0.8
2022-11-17T20:47:56.324Z,0.8
2022-11-17T20:54:19.243Z,0.8
2022-11-17T21:00:39.274Z,0.8
2022-11-17T21:07:01.961Z,1.2
2022-11-17T21:13:21.948Z,1.2
2022-11-17T21:19:44.960Z,14.8
2022-11-17T21:26:04.923Z,14.8
2022-11-17T21:32:27.995Z,3.7
2022-11-17T21:38:48.059Z,3.7
2022-11-17T21:45:10.957Z,2.1
2022-11-17T21:51:31.040Z,2.1
2022-11-17T21:57:53.994Z,3.6
2022-11-17T22:04:13.938Z,3.6
2022-11-17T22:10:36.957Z,3.8
2022-11-17T22:16:56.896Z,3.8
2022-11-17T22:23:20.020Z,17.2
2022-11-17T22:29:39.947Z,17.2
2022-11-17T22:36:02.924Z,1.9
2022-11-17T22:42:22.931Z,1.9
2022-11-17T22:48:45.962Z,1.7
2022-11-17T22:55:05.964Z,1.7
2022-11-17T23:01:28.944Z,1.3
2022-11-17T23:24:25.899Z,10.7
2022-11-17T23:30:45.908Z,10.7
2022-11-17T23:37:08.897Z,10.7
2022-11-17T23:43:28.992Z,10.7
2022-11-17T23:49:51.974Z,24.5
2022-11-17T23:56:11.991Z,24.5
